Time;durP1;ratioP1;P1;durP2;ratioP2;P2;SDS_P1;SDS_P2;PMS_P1;PMS_P2;Temp;Humidity;BMP_temperature;BMP_pressure;BME280_temperature;BME280_humidity;BME280_pressure;Samples;Min_cycle;Max_cycle;Signal;HPM_P1;HPM_P2
2021/08/24 00:01:16;;;;;;;2.95;2.40;;;14.10;99.90;;;;;;5071814;28;20059;-42
2021/08/24 00:03:41;;;;;;;5.55;2.70;;;14.00;99.90;;;;;;5086201;28;20047;-42
2021/08/24 00:06:07;;;;;;;3.65;2.17;;;14.00;99.90;;;;;;5090862;28;20070;-42
2021/08/24 00:08:34;;;;;;;2.92;2.47;;;13.90;99.90;;;;;;5090704;28;20073;-41
2021/08/24 00:11:03;;;;;;;3.38;2.40;;;13.90;99.90;;;;;;5090537;28;20069;-42
2021/08/24 00:13:28;;;;;;;3.97;2.78;;;13.90;99.90;;;;;;5088868;28;20029;-41
2021/08/24 00:15:56;;;;;;;4.30;2.38;;;13.80;99.90;;;;;;5088990;28;20024;-41
2021/08/24 00:18:22;;;;;;;4.68;2.30;;;13.80;99.90;;;;;;5085348;28;20073;-41
2021/08/24 00:20:50;;;;;;;4.07;2.58;;;13.70;99.90;;;;;;5077015;28;20025;-41
2021/08/24 00:23:20;;;;;;;3.17;2.33;;;13.70;99.90;;;;;;5090855;28;20062;-42
2021/08/24 00:25:51;;;;;;;4.43;2.53;;;13.70;99.90;;;;;;5089825;28;20024;-41
2021/08/24 00:28:17;;;;;;;3.50;2.35;;;13.70;99.90;;;;;;5073173;28;20103;-41
2021/08/24 00:30:42;;;;;;;5.07;2.90;;;13.70;99.90;;;;;;5087401;28;20028;-42
2021/08/24 00:33:09;;;;;;;5.40;2.80;;;13.70;99.90;;;;;;5090670;28;20024;-41
2021/08/24 00:35:39;;;;;;;6.63;2.80;;;13.70;99.90;;;;;;5090496;28;20043;-41
2021/08/24 00:38:07;;;;;;;4.70;2.40;;;13.70;99.90;;;;;;5089875;28;20384;-42
2021/08/24 00:40:32;;;;;;;5.38;2.40;;;13.70;99.90;;;;;;5090250;28;20023;-41
2021/08/24 00:42:58;;;;;;;4.18;2.38;;;13.70;99.90;;;;;;5090291;28;20409;-41
2021/08/24 00:45:23;;;;;;;7.78;2.47;;;13.70;99.90;;;;;;5090250;28;20039;-41
2021/08/24 00:47:50;;;;;;;3.65;2.20;;;13.60;99.90;;;;;;5089573;28;20546;-41
2021/08/24 00:50:22;;;;;;;4.38;2.33;;;13.60;99.90;;;;;;5088814;28;20059;-41
2021/08/24 00:52:48;;;;;;;5.85;2.67;;;13.60;99.90;;;;;;5090063;28;20032;-42
2021/08/24 00:55:16;;;;;;;4.68;2.47;;;13.60;99.90;;;;;;5090170;28;20031;-42
2021/08/24 00:57:54;;;;;;;7.53;3.00;;;13.60;99.90;;;;;;5055673;28;20031;-42
2021/08/24 01:00:19;;;;;;;3.83;2.33;;;13.60;99.90;;;;;;5060875;28;20021;-41
2021/08/24 01:02:45;;;;;;;5.03;2.85;;;13.50;99.90;;;;;;5058619;28;20412;-41
2021/08/24 01:05:11;;;;;;;3.90;2.58;;;13.50;99.90;;;;;;5060435;28;20096;-41
2021/08/24 01:07:57;;;;;;;10.40;3.83;;;13.50;99.90;;;;;;5058097;28;20021;-42
2021/08/24 01:10:32;;;;;;;5.47;2.90;;;13.50;99.90;;;;;;5060119;28;20041;-42
2021/08/24 01:13:06;;;;;;;4.60;2.83;;;13.50;99.90;;;;;;5058971;28;20037;-41
2021/08/24 01:15:55;;;;;;;4.15;2.90;;;13.50;99.90;;;;;;5058608;28;20100;-41
2021/08/24 01:18:33;;;;;;;6.45;2.97;;;13.40;99.90;;;;;;5057940;28;20065;-41
2021/08/24 01:21:27;;;;;;;8.10;2.78;;;13.40;99.90;;;;;;5056831;28;20017;-41
2021/08/24 01:24:05;;;;;;;7.80;3.22;;;13.40;99.90;;;;;;5059909;28;20025;-42
2021/08/24 01:26:44;;;;;;;4.47;2.88;;;13.40;99.90;;;;;;5054655;28;20066;-41
2021/08/24 01:29:31;;;;;;;6.00;2.88;;;13.40;99.90;;;;;;5065296;28;20020;-42
2021/08/24 01:32:23;;;;;;;7.68;3.75;;;13.40;99.90;;;;;;5059093;28;20103;-42
2021/08/24 01:35:21;;;;;;;5.65;2.90;;;13.30;99.90;;;;;;5059129;28;20024;-42
2021/08/24 01:38:00;;;;;;;4.85;3.47;;;13.30;99.90;;;;;;5064010;28;20024;-42
2021/08/24 01:40:41;;;;;;;6.50;2.85;;;13.30;99.90;;;;;;5069015;28;20029;-41
2021/08/24 01:43:10;;;;;;;6.63;2.95;;;13.20;99.90;;;;;;5067458;28;20032;-43
2021/08/24 01:45:44;;;;;;;7.57;3.45;;;13.20;99.90;;;;;;5068889;28;20033;-42
2021/08/24 01:48:12;;;;;;;5.13;3.10;;;13.30;99.90;;;;;;5068423;28;20025;-41
2021/08/24 01:50:59;;;;;;;4.57;3.13;;;13.20;99.90;;;;;;5068825;28;20029;-42
2021/08/24 01:53:35;;;;;;;5.50;3.33;;;13.20;99.90;;;;;;5067526;28;20486;-41
2021/08/24 01:56:11;;;;;;;6.88;3.50;;;13.20;99.90;;;;;;5068517;28;20284;-41
2021/08/24 01:58:46;;;;;;;5.70;3.30;;;13.20;99.90;;;;;;5072558;28;20058;-41
2021/08/24 02:01:15;;;;;;;6.07;3.35;;;13.20;99.90;;;;;;5069257;28;20103;-41
2021/08/24 02:03:46;;;;;;;5.55;3.78;;;13.20;99.90;;;;;;5085144;28;20063;-41
2021/08/24 02:06:20;;;;;;;8.68;4.07;;;13.10;99.90;;;;;;5087135;28;20485;-41
2021/08/24 02:08:49;;;;;;;7.80;3.60;;;13.00;99.90;;;;;;5057290;28;20088;-41
2021/08/24 02:11:14;;;;;;;4.88;3.08;;;13.00;99.90;;;;;;5057244;28;20029;-42
2021/08/24 02:13:44;;;;;;;7.38;3.25;;;13.00;99.90;;;;;;5057900;28;20025;-41
2021/08/24 02:16:15;;;;;;;5.68;2.95;;;13.00;99.90;;;;;;5058670;28;20027;-42
2021/08/24 02:18:43;;;;;;;5.57;3.15;;;13.00;99.90;;;;;;5058432;28;20027;-41
2021/08/24 02:21:24;;;;;;;5.68;3.45;;;13.00;99.90;;;;;;5055882;28;20021;-41
2021/08/24 02:23:53;;;;;;;4.88;3.30;;;13.00;99.90;;;;;;5064684;28;20044;-41
2021/08/24 02:26:21;;;;;;;8.73;3.60;;;13.00;99.90;;;;;;5057800;28;20533;-41
2021/08/24 02:28:50;;;;;;;11.77;3.70;;;12.90;99.90;;;;;;5061654;28;20071;-42
2021/08/24 02:31:43;;;;;;;5.53;3.83;;;12.90;99.90;;;;;;5057344;28;20013;-41
2021/08/24 02:34:20;;;;;;;6.55;3.20;;;12.90;99.90;;;;;;5058395;28;20387;-42
2021/08/24 02:37:04;;;;;;;7.70;3.58;;;12.80;99.90;;;;;;5055831;28;20452;-42
2021/08/24 02:39:45;;;;;;;6.80;3.78;;;12.80;99.90;;;;;;5058584;28;20399;-42
2021/08/24 02:42:17;;;;;;;5.85;3.30;;;12.80;99.90;;;;;;5058291;28;20021;-42
2021/08/24 02:44:50;;;;;;;6.32;3.70;;;12.80;99.90;;;;;;5054877;28;20056;-42
2021/08/24 02:47:16;;;;;;;5.65;3.30;;;12.80;99.90;;;;;;5047375;28;20033;-42
2021/08/24 02:49:42;;;;;;;9.00;3.67;;;12.70;99.90;;;;;;5046745;28;20421;-43
2021/08/24 02:52:10;;;;;;;8.27;3.50;;;12.70;99.90;;;;;;5050684;28;20158;-43
2021/08/24 02:54:42;;;;;;;5.75;3.42;;;12.70;99.90;;;;;;5057302;28;20032;-43
2021/08/24 02:57:09;;;;;;;6.03;3.55;;;12.60;99.90;;;;;;5058110;28;20119;-42
2021/08/24 02:59:35;;;;;;;7.28;3.42;;;12.60;99.90;;;;;;5073370;28;20442;-39
2021/08/24 03:02:02;;;;;;;6.20;3.20;;;12.60;99.90;;;;;;5078518;28;20044;-39
2021/08/24 03:04:28;;;;;;;5.97;3.28;;;12.60;99.90;;;;;;5047852;28;20044;-39
2021/08/24 03:06:59;;;;;;;4.65;2.65;;;12.50;99.90;;;;;;5047694;28;20036;-39
2021/08/24 03:09:28;;;;;;;5.05;2.88;;;12.50;99.90;;;;;;5047905;28;20071;-39
2021/08/24 03:12:25;;;;;;;5.28;3.13;;;12.50;99.90;;;;;;5048010;28;20037;-39
2021/08/24 03:15:07;;;;;;;5.57;3.28;;;12.50;99.90;;;;;;5048061;28;20033;-39
2021/08/24 03:17:41;;;;;;;6.57;3.22;;;12.50;99.90;;;;;;5047415;28;20108;-39
2021/08/24 03:20:09;;;;;;;9.48;3.88;;;12.40;99.90;;;;;;5046448;28;20513;-39
2021/08/24 03:22:37;;;;;;;4.55;2.92;;;12.40;99.90;;;;;;5048131;28;20566;-39
2021/08/24 03:25:06;;;;;;;4.70;2.88;;;12.40;99.90;;;;;;5048074;28;20086;-39
2021/08/24 03:27:35;;;;;;;6.53;3.30;;;12.40;99.90;;;;;;5060104;28;20265;-39
2021/08/24 03:30:06;;;;;;;5.82;3.55;;;12.30;99.90;;;;;;5078166;28;20657;-41
2021/08/24 03:32:31;;;;;;;5.13;3.38;;;12.30;99.90;;;;;;5060410;28;20021;-41
2021/08/24 03:34:57;;;;;;;5.00;2.95;;;12.30;99.90;;;;;;5061267;28;20459;-41
2021/08/24 03:37:22;;;;;;;8.10;3.30;;;12.30;99.90;;;;;;5059317;28;20029;-42
2021/08/24 03:39:48;;;;;;;8.40;3.70;;;12.30;99.90;;;;;;5060062;28;20494;-41
2021/08/24 03:42:13;;;;;;;6.95;3.70;;;12.30;99.90;;;;;;5061118;28;20092;-41
2021/08/24 03:44:39;;;;;;;7.43;3.83;;;12.30;99.90;;;;;;5061533;28;20139;-41
2021/08/24 03:47:04;;;;;;;8.55;4.07;;;12.20;99.90;;;;;;5059198;28;20025;-42
2021/08/24 03:49:29;;;;;;;8.15;4.25;;;12.20;99.90;;;;;;5058869;28;20033;-41
2021/08/24 03:51:55;;;;;;;9.07;4.45;;;12.20;99.90;;;;;;5053846;28;20052;-41
2021/08/24 03:54:20;;;;;;;10.32;4.28;;;12.20;99.90;;;;;;5058889;28;20690;-41
2021/08/24 03:56:46;;;;;;;6.78;4.70;;;12.20;99.90;;;;;;5051452;28;20052;-42
2021/08/24 03:59:11;;;;;;;7.03;4.32;;;12.10;99.90;;;;;;5074518;28;20459;-42
2021/08/24 04:01:37;;;;;;;7.70;4.50;;;12.10;99.90;;;;;;5064973;28;20017;-42
2021/08/24 04:04:03;;;;;;;9.73;4.72;;;12.10;99.90;;;;;;5061939;28;20506;-42
2021/08/24 04:06:28;;;;;;;5.30;3.95;;;12.10;99.90;;;;;;5051919;28;20051;-42
2021/08/24 04:08:54;;;;;;;9.63;4.63;;;12.10;99.90;;;;;;5050648;28;20053;-42
2021/08/24 04:11:20;;;;;;;6.28;4.40;;;12.10;99.90;;;;;;5049387;28;20136;-43
2021/08/24 04:13:45;;;;;;;4.97;4.13;;;12.10;99.90;;;;;;5050275;28;20433;-42
2021/08/24 04:16:12;;;;;;;7.63;4.30;;;12.10;99.90;;;;;;5049979;28;20059;-42
2021/08/24 04:18:39;;;;;;;15.45;4.68;;;12.00;99.90;;;;;;5050635;28;20049;-42
2021/08/24 04:21:13;;;;;;;6.28;4.20;;;12.00;99.90;;;;;;5069747;28;20063;-42
2021/08/24 04:23:40;;;;;;;9.30;4.22;;;12.00;99.90;;;;;;5087092;28;20020;-45
2021/08/24 04:26:06;;;;;;;7.88;4.45;;;12.00;99.90;;;;;;5090813;28;20050;-42
2021/08/24 04:28:32;;;;;;;7.45;3.90;;;12.00;99.90;;;;;;5074612;28;20111;-41
2021/08/24 04:30:57;;;;;;;4.63;3.58;;;11.90;99.90;;;;;;5080993;28;20362;-41
2021/08/24 04:33:23;;;;;;;6.90;4.13;;;12.00;99.90;;;;;;5090686;28;20031;-42
2021/08/24 04:35:51;;;;;;;5.13;3.90;;;12.00;99.90;;;;;;5090710;28;20028;-42
2021/08/24 04:38:16;;;;;;;6.90;4.07;;;11.90;99.90;;;;;;5090255;28;20039;-43
2021/08/24 04:40:43;;;;;;;5.03;3.53;;;11.90;99.90;;;;;;5090946;28;20036;-43
2021/08/24 04:43:08;;;;;;;7.53;4.03;;;12.00;99.90;;;;;;5090702;28;20120;-43
2021/08/24 04:45:34;;;;;;;7.07;3.78;;;12.00;99.90;;;;;;5080996;28;20044;-42
2021/08/24 04:47:59;;;;;;;7.97;5.00;;;12.00;99.90;;;;;;5054050;28;20031;-42
2021/08/24 04:50:25;;;;;;;6.40;3.88;;;11.90;99.90;;;;;;5056843;28;20481;-42
2021/08/24 04:52:50;;;;;;;6.75;4.07;;;11.90;99.90;;;;;;5064663;28;20037;-42
2021/08/24 04:55:16;;;;;;;5.55;3.53;;;12.00;99.90;;;;;;5060803;28;20097;-42
2021/08/24 04:57:41;;;;;;;6.15;3.92;;;12.00;99.90;;;;;;5056835;28;20311;-42
2021/08/24 05:00:08;;;;;;;7.03;4.35;;;12.00;99.90;;;;;;5065434;28;20099;-43
2021/08/24 05:02:33;;;;;;;10.82;3.83;;;12.00;99.90;;;;;;5058196;28;20032;-42
2021/08/24 05:04:59;;;;;;;5.30;3.63;;;12.00;99.90;;;;;;5060046;28;20098;-42
2021/08/24 05:07:24;;;;;;;7.32;4.22;;;12.00;99.90;;;;;;5057950;28;20027;-42
2021/08/24 05:09:50;;;;;;;7.03;4.13;;;12.00;99.90;;;;;;5058674;28;20051;-42
2021/08/24 05:12:15;;;;;;;6.75;4.25;;;12.00;99.90;;;;;;5060060;28;20048;-42
2021/08/24 05:14:41;;;;;;;5.60;3.45;;;12.00;99.90;;;;;;5058160;28;20028;-42
2021/08/24 05:17:06;;;;;;;10.43;3.92;;;12.00;99.90;;;;;;5082029;28;20030;-42
2021/08/24 05:19:32;;;;;;;4.97;3.50;;;12.10;99.90;;;;;;5089578;28;20063;-42
2021/08/24 05:21:57;;;;;;;12.32;4.30;;;12.10;99.90;;;;;;5088070;28;20027;-43
2021/08/24 05:24:23;;;;;;;5.70;3.55;;;12.10;99.90;;;;;;5077446;28;20037;-42
2021/08/24 05:26:49;;;;;;;6.35;4.05;;;12.20;99.90;;;;;;5057819;28;20240;-42
2021/08/24 05:29:16;;;;;;;6.57;3.75;;;12.20;99.90;;;;;;5064337;28;20076;-42
2021/08/24 05:31:42;;;;;;;5.28;3.55;;;12.20;99.90;;;;;;5054176;28;20048;-42
2021/08/24 05:34:08;;;;;;;11.18;3.40;;;12.30;99.90;;;;;;5063845;28;20043;-42
2021/08/24 05:36:34;;;;;;;8.77;3.30;;;12.30;99.90;;;;;;5055898;28;20032;-43
2021/08/24 05:39:01;;;;;;;5.35;3.08;;;12.30;99.90;;;;;;5057399;28;20024;-42
2021/08/24 05:41:27;;;;;;;6.03;3.50;;;12.40;99.90;;;;;;5051275;28;20032;-42
2021/08/24 05:43:52;;;;;;;9.00;4.15;;;12.40;99.90;;;;;;5053551;28;20032;-42
2021/08/24 05:46:18;;;;;;;4.60;3.08;;;12.50;99.90;;;;;;5055854;28;20048;-43
2021/08/24 05:48:43;;;;;;;7.95;3.35;;;12.50;99.90;;;;;;5056034;28;20501;-42
2021/08/24 05:51:12;;;;;;;7.07;3.10;;;12.50;99.90;;;;;;5060768;28;20012;-42
2021/08/24 05:53:38;;;;;;;5.97;2.95;;;12.60;99.90;;;;;;5062225;28;20044;-42
2021/08/24 05:56:12;;;;;;;6.22;3.40;;;12.60;99.90;;;;;;5055909;28;20127;-42
2021/08/24 05:58:38;;;;;;;6.18;3.05;;;12.70;99.90;;;;;;5058187;28;20021;-42
2021/08/24 06:01:05;;;;;;;6.95;3.42;;;12.70;99.90;;;;;;5061923;28;20123;-42
2021/08/24 06:03:30;;;;;;;5.88;3.40;;;12.80;99.90;;;;;;5058209;28;20135;-42
2021/08/24 06:05:58;;;;;;;6.38;3.17;;;12.80;99.90;;;;;;5056402;28;20280;-42
2021/08/24 06:08:24;;;;;;;4.97;3.25;;;12.90;99.90;;;;;;5056960;28;20107;-43
2021/08/24 06:10:49;;;;;;;6.30;3.40;;;13.00;99.90;;;;;;5056449;28;20078;-42
2021/08/24 06:13:15;;;;;;;5.13;2.83;;;13.00;99.90;;;;;;5056075;28;20028;-42
2021/08/24 06:15:40;;;;;;;6.85;3.45;;;13.10;99.90;;;;;;5057963;28;20039;-42
2021/08/24 06:18:06;;;;;;;3.85;3.00;;;13.10;99.90;;;;;;5056530;28;20078;-42
2021/08/24 06:20:32;;;;;;;6.43;3.65;;;13.10;99.90;;;;;;5058820;28;20016;-42
2021/08/24 06:22:57;;;;;;;5.45;3.13;;;13.20;99.90;;;;;;5058038;28;20030;-42
2021/08/24 06:25:23;;;;;;;5.55;3.28;;;13.30;99.90;;;;;;5054895;28;20052;-42
2021/08/24 06:27:50;;;;;;;8.25;3.67;;;13.30;99.90;;;;;;5056220;28;20016;-42
2021/08/24 06:30:16;;;;;;;8.90;3.60;;;13.40;99.90;;;;;;5054857;28;20618;-42
2021/08/24 06:32:59;;;;;;;4.25;2.65;;;13.50;99.90;;;;;;5055187;28;20154;-42
2021/08/24 06:35:25;;;;;;;6.43;3.25;;;13.60;99.90;;;;;;5053422;28;20402;-42
2021/08/24 06:37:50;;;;;;;7.03;3.63;;;13.60;99.90;;;;;;5053456;28;20036;-42
2021/08/24 06:40:18;;;;;;;6.18;3.67;;;13.70;99.90;;;;;;5054579;28;20040;-42
2021/08/24 06:42:51;;;;;;;4.63;3.00;;;13.70;99.90;;;;;;5058361;28;20029;-43
2021/08/24 06:45:27;;;;;;;5.30;2.95;;;13.90;99.90;;;;;;5059406;28;20044;-43
2021/08/24 06:47:52;;;;;;;4.70;2.60;;;13.90;99.90;;;;;;5051610;28;20130;-42
2021/08/24 06:50:19;;;;;;;7.22;3.08;;;14.00;99.90;;;;;;5081507;28;20524;-43
2021/08/24 06:52:45;;;;;;;6.65;3.08;;;14.10;99.90;;;;;;5074750;28;20040;-42
2021/08/24 06:55:12;;;;;;;6.13;3.33;;;14.20;99.90;;;;;;5053648;28;20135;-42
2021/08/24 06:57:38;;;;;;;7.63;3.25;;;14.30;99.90;;;;;;5063395;28;20023;-42
2021/08/24 07:00:07;;;;;;;5.72;3.10;;;14.30;99.90;;;;;;5060496;28;20035;-42
2021/08/24 07:02:32;;;;;;;5.60;3.13;;;14.30;99.90;;;;;;5052095;28;20044;-42
2021/08/24 07:04:58;;;;;;;6.82;2.78;;;14.40;99.90;;;;;;5052207;28;20105;-42
2021/08/24 07:07:23;;;;;;;7.32;3.58;;;14.50;99.90;;;;;;5062753;28;20036;-43
2021/08/24 07:09:51;;;;;;;5.00;3.05;;;14.60;99.90;;;;;;5063302;28;20106;-42
2021/08/24 07:12:17;;;;;;;5.25;2.97;;;14.70;99.90;;;;;;5061018;28;20588;-42
2021/08/24 07:14:42;;;;;;;4.03;2.53;;;14.80;99.90;;;;;;5065710;28;20029;-42
2021/08/24 07:17:08;;;;;;;4.07;2.60;;;14.80;99.90;;;;;;5066137;28;20024;-42
2021/08/24 07:19:33;;;;;;;7.03;3.20;;;14.90;99.90;;;;;;5053382;28;20361;-42
2021/08/24 07:22:00;;;;;;;3.92;2.40;;;15.00;99.90;;;;;;5070234;28;20109;-43
2021/08/24 07:24:26;;;;;;;5.97;2.60;;;15.10;99.90;;;;;;5055921;28;20644;-42
2021/08/24 07:26:51;;;;;;;4.47;2.63;;;15.20;99.90;;;;;;5057023;28;20033;-42
2021/08/24 07:29:17;;;;;;;5.38;2.50;;;15.40;99.90;;;;;;5060707;28;20511;-43
2021/08/24 07:31:42;;;;;;;4.35;2.55;;;15.40;99.90;;;;;;5061053;28;20104;-42
2021/08/24 07:34:09;;;;;;;3.90;2.35;;;15.60;99.90;;;;;;5061761;28;20032;-43
2021/08/24 07:36:35;;;;;;;5.15;2.33;;;15.70;99.90;;;;;;5061469;28;20489;-42
2021/08/24 07:39:02;;;;;;;2.95;2.00;;;15.90;99.90;;;;;;5063085;28;20024;-41
2021/08/24 07:41:27;;;;;;;3.97;1.95;;;16.00;99.90;;;;;;5062455;28;20032;-40
2021/08/24 07:43:53;;;;;;;3.97;1.83;;;16.20;99.90;;;;;;5059323;28;20024;-40
2021/08/24 07:46:19;;;;;;;4.90;2.15;;;16.40;99.90;;;;;;5051949;28;20028;-40
2021/08/24 07:48:45;;;;;;;3.45;1.95;;;16.60;99.90;;;;;;5057973;28;20503;-41
2021/08/24 07:51:11;;;;;;;3.92;2.30;;;16.80;99.90;;;;;;5071690;28;20035;-40
2021/08/24 07:53:37;;;;;;;4.38;2.10;;;17.10;99.90;;;;;;5068169;28;20107;-42
2021/08/24 07:56:04;;;;;;;4.03;2.10;;;17.20;99.90;;;;;;5074584;28;20561;-43
2021/08/24 07:58:30;;;;;;;3.70;1.85;;;17.50;99.90;;;;;;5078075;28;20012;-43
2021/08/24 08:00:55;;;;;;;2.53;1.48;;;18.10;99.90;;;;;;5082417;28;20035;-43
2021/08/24 08:03:21;;;;;;;2.17;1.50;;;19.10;99.90;;;;;;5061149;28;20465;-45
2021/08/24 08:05:47;;;;;;;1.92;1.38;;;20.40;99.90;;;;;;5064709;28;20107;-45
2021/08/24 08:08:13;;;;;;;2.45;1.33;;;21.70;99.90;;;;;;5079223;28;20017;-44
2021/08/24 08:10:38;;;;;;;3.08;1.50;;;22.80;96.30;;;;;;5071251;28;20036;-44
2021/08/24 08:13:04;;;;;;;2.15;1.27;;;23.60;93.20;;;;;;5076260;28;20405;-43
2021/08/24 08:15:33;;;;;;;3.30;1.63;;;24.50;90.60;;;;;;5063792;28;20035;-44
2021/08/24 08:18:03;;;;;;;1.45;1.35;;;24.80;85.40;;;;;;5058066;28;20036;-44
2021/08/24 08:20:30;;;;;;;3.83;1.20;;;25.30;82.70;;;;;;5057942;28;20020;-45
2021/08/24 08:22:56;;;;;;;2.60;1.35;;;25.80;80.20;;;;;;5067775;28;20028;-43
2021/08/24 08:25:22;;;;;;;3.30;1.33;;;26.00;77.90;;;;;;5081702;28;20043;-42
2021/08/24 08:27:47;;;;;;;2.05;1.33;;;26.80;74.40;;;;;;5078285;28;20021;-43
2021/08/24 08:30:13;;;;;;;3.63;1.15;;;27.00;73.00;;;;;;5083541;28;20062;-43
2021/08/24 08:32:41;;;;;;;1.83;1.40;;;26.80;70.50;;;;;;5083030;28;20083;-44
2021/08/24 08:35:07;;;;;;;1.98;1.15;;;27.00;70.40;;;;;;5085805;28;20020;-43
2021/08/24 08:37:33;;;;;;;3.72;1.30;;;27.40;69.20;;;;;;5070057;28;20021;-44
2021/08/24 08:39:59;;;;;;;3.10;1.27;;;27.20;67.50;;;;;;5071651;28;20027;-43
2021/08/24 08:42:40;;;;;;;1.80;1.30;;;27.20;68.30;;;;;;5071635;28;20032;-46
2021/08/24 08:45:41;;;;;;;2.78;1.50;;;27.60;66.50;;;;;;5070928;28;20029;-44
2021/08/24 08:48:36;;;;;;;2.58;1.15;;;28.00;65.90;;;;;;5065525;28;20452;-44
2021/08/24 08:51:06;;;;;;;2.10;1.27;;;28.60;63.80;;;;;;5081689;28;20087;-43
2021/08/24 08:53:44;;;;;;;2.20;1.30;;;28.30;62.60;;;;;;5091857;28;20154;-43
2021/08/24 08:56:36;;;;;;;2.15;1.08;;;27.60;62.70;;;;;;5071338;28;20025;-43
2021/08/24 08:59:12;;;;;;;3.42;1.40;;;27.60;63.50;;;;;;5065419;28;20077;-44
2021/08/24 09:02:17;;;;;;;2.63;1.20;;;26.80;64.10;;;;;;5089283;28;20028;-45
2021/08/24 09:04:44;;;;;;;5.00;1.70;;;26.70;64.00;;;;;;5085293;28;20033;-43
2021/08/24 09:07:29;;;;;;;2.30;1.63;;;27.00;65.70;;;;;;5087282;28;20074;-43
2021/08/24 09:09:55;;;;;;;3.15;1.40;;;28.30;62.90;;;;;;5071836;28;20039;-44
2021/08/24 09:12:21;;;;;;;2.13;1.38;;;29.40;59.50;;;;;;5077577;28;20191;-44
2021/08/24 09:14:51;;;;;;;2.95;1.45;;;30.20;57.60;;;;;;5057469;28;20132;-45
2021/08/24 09:17:16;;;;;;;3.20;1.65;;;30.30;56.80;;;;;;5065485;28;20016;-43
2021/08/24 09:20:02;;;;;;;3.72;1.20;;;30.80;57.30;;;;;;5059331;28;20509;-44
2021/08/24 09:22:28;;;;;;;2.15;1.27;;;31.10;54.10;;;;;;5062212;28;20048;-43
2021/08/24 09:24:53;;;;;;;1.52;1.13;;;31.30;53.10;;;;;;5059806;28;20052;-44
2021/08/24 09:27:45;;;;;;;1.90;1.25;;;31.20;52.30;;;;;;5056072;28;20518;-44
2021/08/24 09:30:12;;;;;;;2.40;1.42;;;31.00;53.40;;;;;;5062605;28;20099;-44
2021/08/24 09:32:37;;;;;;;2.65;1.30;;;31.00;52.70;;;;;;5060215;28;20033;-43
2021/08/24 09:35:12;;;;;;;2.58;1.88;;;30.80;53.20;;;;;;5058733;28;20032;-43
2021/08/24 09:37:40;;;;;;;2.58;1.70;;;29.50;53.80;;;;;;5059045;28;20021;-43
2021/08/24 09:40:08;;;;;;;4.10;1.65;;;28.70;54.70;;;;;;5058796;28;20036;-43
2021/08/24 09:42:41;;;;;;;1.55;1.30;;;28.70;55.70;;;;;;5054361;28;20482;-43
2021/08/24 09:45:18;;;;;;;3.03;1.35;;;28.90;55.00;;;;;;5052538;28;20029;-44
2021/08/24 09:47:59;;;;;;;5.53;1.70;;;29.80;54.90;;;;;;5076805;28;20042;-43
2021/08/24 09:50:31;;;;;;;3.67;1.80;;;30.90;51.90;;;;;;5069176;28;20050;-44
2021/08/24 09:52:57;;;;;;;3.80;2.58;;;31.50;49.70;;;;;;5067274;28;20024;-43
2021/08/24 09:55:28;;;;;;;2.30;1.70;;;31.80;48.90;;;;;;5069388;28;20055;-43
2021/08/24 09:58:00;;;;;;;2.88;1.75;;;32.20;49.20;;;;;;5061437;28;20020;-45
2021/08/24 10:00:40;;;;;;;3.85;1.67;;;31.70;49.40;;;;;;5064636;28;20016;-44
2021/08/24 10:03:30;;;;;;;1.42;1.33;;;31.40;48.60;;;;;;5059991;28;20024;-45
2021/08/24 10:06:20;;;;;;;4.20;1.92;;;31.10;49.20;;;;;;5060344;28;20032;-44
2021/08/24 10:08:45;;;;;;;2.15;1.40;;;30.10;49.80;;;;;;5057230;28;20029;-44
2021/08/24 10:11:28;;;;;;;1.88;1.50;;;28.70;52.30;;;;;;5058875;28;20127;-46
2021/08/24 10:14:09;;;;;;;4.18;2.70;;;28.60;54.30;;;;;;5058947;28;20037;-46
2021/08/24 10:16:39;;;;;;;3.92;2.53;;;28.90;52.30;;;;;;5058911;28;20444;-43
2021/08/24 10:19:11;;;;;;;3.05;2.35;;;29.00;53.70;;;;;;5058048;28;20025;-43
2021/08/24 10:21:59;;;;;;;4.95;2.22;;;29.30;52.80;;;;;;5050035;28;20029;-45
2021/08/24 10:24:32;;;;;;;2.40;1.80;;;29.80;51.10;;;;;;5050002;28;20037;-45
2021/08/24 10:27:07;;;;;;;3.05;1.70;;;30.90;49.90;;;;;;5049197;28;20043;-44
2021/08/24 10:29:36;;;;;;;3.08;2.00;;;30.70;48.10;;;;;;5077775;28;20651;-43
2021/08/24 10:32:08;;;;;;;4.38;2.05;;;31.10;48.60;;;;;;5070386;28;20098;-44
2021/08/24 10:34:41;;;;;;;2.17;1.58;;;30.50;49.40;;;;;;5068186;28;20518;-44
2021/08/24 10:37:24;;;;;;;2.85;1.90;;;30.00;48.60;;;;;;5069180;28;20028;-43
2021/08/24 10:40:08;;;;;;;2.42;1.65;;;30.10;49.00;;;;;;5066474;28;20486;-43
2021/08/24 10:42:37;;;;;;;2.95;1.90;;;30.10;49.60;;;;;;5060762;28;20025;-48
2021/08/24 10:45:25;;;;;;;2.13;1.80;;;30.70;50.40;;;;;;5065728;28;20036;-48
2021/08/24 10:47:54;;;;;;;4.13;2.10;;;31.10;48.30;;;;;;5065434;28;20107;-50
2021/08/24 10:50:24;;;;;;;2.90;2.10;;;31.20;47.10;;;;;;5061022;28;20523;-47
2021/08/24 10:52:49;;;;;;;2.75;1.90;;;30.70;48.20;;;;;;5066039;28;20082;-47
2021/08/24 10:55:33;;;;;;;2.83;1.92;;;30.00;49.70;;;;;;5059753;28;20366;-48
2021/08/24 10:58:21;;;;;;;2.67;1.88;;;30.20;49.40;;;;;;5060149;28;20032;-47
2021/08/24 11:00:57;;;;;;;2.47;1.90;;;30.40;50.30;;;;;;5070485;28;20029;-47
2021/08/24 11:03:35;;;;;;;2.72;2.00;;;31.10;46.60;;;;;;5064445;28;20597;-48
2021/08/24 11:06:36;;;;;;;2.50;2.30;;;31.30;46.50;;;;;;5060865;28;20033;-47
2021/08/24 11:09:20;;;;;;;2.80;2.03;;;31.00;48.60;;;;;;5065043;28;20021;-48
2021/08/24 11:12:09;;;;;;;2.63;2.13;;;30.40;46.60;;;;;;5060963;28;20028;-49
2021/08/24 11:14:55;;;;;;;3.72;2.50;;;29.50;47.60;;;;;;5059027;28;20032;-46
2021/08/24 11:17:52;;;;;;;4.93;2.67;;;29.60;47.20;;;;;;5061636;28;20437;-49
2021/08/24 11:20:44;;;;;;;3.90;2.50;;;29.10;48.40;;;;;;5062051;28;20041;-47
2021/08/24 11:23:27;;;;;;;4.55;2.42;;;29.20;47.70;;;;;;5065530;28;20021;-47
2021/08/24 11:25:58;;;;;;;3.90;2.50;;;29.40;48.30;;;;;;5066441;28;20083;-46
2021/08/24 11:28:36;;;;;;;4.35;3.13;;;29.80;48.60;;;;;;5064293;28;20068;-47
2021/08/24 11:31:19;;;;;;;3.38;2.63;;;30.60;50.50;;;;;;5067641;28;20025;-47
2021/08/24 11:33:56;;;;;;;3.20;2.60;;;31.00;46.70;;;;;;5064484;28;20036;-47
2021/08/24 11:36:45;;;;;;;3.63;2.72;;;31.50;45.40;;;;;;5064376;28;20127;-48
2021/08/24 11:39:26;;;;;;;4.38;2.75;;;32.20;45.30;;;;;;5065156;28;20020;-47
2021/08/24 11:41:58;;;;;;;4.90;3.20;;;30.90;45.80;;;;;;5062752;28;20406;-49
2021/08/24 11:44:30;;;;;;;3.13;2.63;;;30.80;47.20;;;;;;5063323;28;20101;-47
2021/08/24 11:47:02;;;;;;;4.57;3.28;;;31.50;47.30;;;;;;5061273;28;20055;-48
2021/08/24 11:49:40;;;;;;;4.28;3.38;;;31.60;44.70;;;;;;5062880;28;20028;-47
2021/08/24 11:52:26;;;;;;;4.20;3.10;;;30.90;45.40;;;;;;5062196;28;20501;-46
2021/08/24 11:55:11;;;;;;;4.00;2.97;;;31.60;46.30;;;;;;5055525;28;20025;-47
2021/08/24 11:57:56;;;;;;;3.08;2.42;;;31.80;44.80;;;;;;5055821;28;20037;-46
2021/08/24 12:00:22;;;;;;;13.57;3.88;;;32.30;44.60;;;;;;5064280;28;20074;-46
2021/08/24 12:02:50;;;;;;;4.90;2.92;;;32.60;45.10;;;;;;5060405;28;20020;-47
2021/08/24 12:05:23;;;;;;;4.63;3.05;;;32.50;45.50;;;;;;5058996;28;20166;-49
2021/08/24 12:08:18;;;;;;;4.38;3.05;;;31.50;43.80;;;;;;5060596;28;20124;-46
2021/08/24 12:10:49;;;;;;;3.85;2.60;;;30.40;46.10;;;;;;5071183;28;20086;-46
2021/08/24 12:13:26;;;;;;;4.20;2.58;;;29.00;47.80;;;;;;5077579;28;20111;-48
2021/08/24 12:16:16;;;;;;;3.72;2.65;;;28.10;49.20;;;;;;5088694;28;20035;-46
2021/08/24 12:18:42;;;;;;;5.25;3.38;;;27.70;49.60;;;;;;5089442;28;20058;-46
2021/08/24 12:21:33;;;;;;;4.35;2.85;;;27.60;50.10;;;;;;5072301;28;20229;-46
2021/08/24 12:24:24;;;;;;;5.13;3.05;;;27.70;51.70;;;;;;5089575;28;20508;-46
2021/08/24 12:27:09;;;;;;;5.97;2.75;;;27.60;51.60;;;;;;5073427;28;20037;-46
2021/08/24 12:29:35;;;;;;;5.25;3.20;;;27.40;51.80;;;;;;5067085;28;20103;-46
2021/08/24 12:32:05;;;;;;;5.78;4.07;;;26.90;52.70;;;;;;5074140;28;20043;-46
2021/08/24 12:34:33;;;;;;;5.65;4.00;;;26.20;51.70;;;;;;5081918;28;20047;-45
2021/08/24 12:37:03;;;;;;;6.07;3.78;;;25.90;52.20;;;;;;5089957;28;20358;-46
2021/08/24 12:39:28;;;;;;;8.07;4.45;;;26.20;51.90;;;;;;5089535;28;20143;-48
2021/08/24 12:42:08;;;;;;;5.30;3.92;;;26.70;52.00;;;;;;5069639;28;20028;-46
2021/08/24 12:44:46;;;;;;;7.68;3.72;;;26.70;51.40;;;;;;5059739;28;20028;-46
2021/08/24 12:47:32;;;;;;;5.05;3.53;;;26.60;51.80;;;;;;5068066;28;20107;-46
2021/08/24 12:50:06;;;;;;;6.43;3.75;;;26.60;52.20;;;;;;5070146;28;20028;-46
2021/08/24 12:52:37;;;;;;;8.35;3.88;;;25.70;52.00;;;;;;5061422;28;20029;-46
2021/08/24 12:55:10;;;;;;;8.45;3.90;;;25.60;53.90;;;;;;5061500;28;20013;-46
2021/08/24 12:58:04;;;;;;;8.45;4.47;;;25.60;52.80;;;;;;5059020;28;20530;-49
2021/08/24 13:00:32;;;;;;;6.00;3.55;;;25.70;56.10;;;;;;5070085;28;20029;-46
2021/08/24 13:03:04;;;;;;;6.40;4.30;;;25.90;55.10;;;;;;5059643;28;20028;-46
2021/08/24 13:05:34;;;;;;;7.18;4.00;;;26.10;54.10;;;;;;5066145;28;20029;-46
2021/08/24 13:08:06;;;;;;;7.07;4.30;;;26.30;54.30;;;;;;5062166;28;20112;-48